sensor_id;sensor_type;location;lat;lon;timestamp;temperature;humidity
33739;DHT22;20063;51.730;11.110;2023-08-12T00:01:48;21.40;99.90
33739;DHT22;20063;51.730;11.110;2023-08-12T00:04:14;21.50;99.90
33739;DHT22;20063;51.730;11.110;2023-08-12T00:06:42;21.50;99.90
33739;DHT22;20063;51.730;11.110;2023-08-12T00:09:08;21.50;99.90
33739;DHT22;20063;51.730;11.110;2023-08-12T00:11:38;21.50;99.90
33739;DHT22;20063;51.730;11.110;2023-08-12T00:14:03;21.50;99.90
33739;DHT22;20063;51.730;11.110;2023-08-12T00:16:29;21.50;99.90
33739;DHT22;20063;51.730;11.110;2023-08-12T00:18:55;21.60;99.90
33739;DHT22;20063;51.730;11.110;2023-08-12T00:21:21;21.50;99.90
33739;DHT22;20063;51.730;11.110;2023-08-12T00:23:47;21.60;99.90
33739;DHT22;20063;51.730;11.110;2023-08-12T00:26:15;21.60;99.90
33739;DHT22;20063;51.730;11.110;2023-08-12T00:28:40;21.60;99.90
33739;DHT22;20063;51.730;11.110;2023-08-12T00:31:06;21.60;99.90
33739;DHT22;20063;51.730;11.110;2023-08-12T00:33:32;21.60;99.90
33739;DHT22;20063;51.730;11.110;2023-08-12T00:35:57;21.60;99.90
33739;DHT22;20063;51.730;11.110;2023-08-12T00:38:23;21.60;99.90
33739;DHT22;20063;51.730;11.110;2023-08-12T00:40:49;21.70;99.90
33739;DHT22;20063;51.730;11.110;2023-08-12T00:43:14;21.60;99.90
33739;DHT22;20063;51.730;11.110;2023-08-12T00:45:40;21.60;99.90
33739;DHT22;20063;51.730;11.110;2023-08-12T00:48:08;21.60;99.90
33739;DHT22;20063;51.730;11.110;2023-08-12T00:50:35;21.60;99.90
33739;DHT22;20063;51.730;11.110;2023-08-12T00:53:01;21.70;99.90
33739;DHT22;20063;51.730;11.110;2023-08-12T00:55:27;21.70;99.90
33739;DHT22;20063;51.730;11.110;2023-08-12T00:57:53;21.70;99.90
33739;DHT22;20063;51.730;11.110;2023-08-12T01:00:19;21.70;99.90
33739;DHT22;20063;51.730;11.110;2023-08-12T01:02:50;21.70;99.90
33739;DHT22;20063;51.730;11.110;2023-08-12T01:05:17;21.70;99.90
33739;DHT22;20063;51.730;11.110;2023-08-12T01:07:43;21.70;99.90
33739;DHT22;20063;51.730;11.110;2023-08-12T01:10:10;21.70;99.90
33739;DHT22;20063;51.730;11.110;2023-08-12T01:12:46;21.80;99.90
33739;DHT22;20063;51.730;11.110;2023-08-12T01:15:17;21.70;99.90
33739;DHT22;20063;51.730;11.110;2023-08-12T01:17:47;21.70;99.90
33739;DHT22;20063;51.730;11.110;2023-08-12T01:20:19;21.70;99.90
33739;DHT22;20063;51.730;11.110;2023-08-12T01:23:13;21.70;99.90
33739;DHT22;20063;51.730;11.110;2023-08-12T01:25:38;21.70;99.90
33739;DHT22;20063;51.730;11.110;2023-08-12T01:28:05;21.70;99.90
33739;DHT22;20063;51.730;11.110;2023-08-12T01:30:31;21.70;99.90
33739;DHT22;20063;51.730;11.110;2023-08-12T01:33:06;21.70;99.90
33739;DHT22;20063;51.730;11.110;2023-08-12T01:35:50;21.70;99.90
33739;DHT22;20063;51.730;11.110;2023-08-12T01:38:18;21.60;99.90
33739;DHT22;20063;51.730;11.110;2023-08-12T01:40:45;21.60;99.90
33739;DHT22;20063;51.730;11.110;2023-08-12T01:43:12;21.60;99.90
33739;DHT22;20063;51.730;11.110;2023-08-12T01:45:38;21.50;99.90
33739;DHT22;20063;51.730;11.110;2023-08-12T01:48:04;21.50;99.90
33739;DHT22;20063;51.730;11.110;2023-08-12T01:50:30;21.50;99.90
33739;DHT22;20063;51.730;11.110;2023-08-12T01:52:56;21.40;99.90
33739;DHT22;20063;51.730;11.110;2023-08-12T01:55:21;21.40;99.90
33739;DHT22;20063;51.730;11.110;2023-08-12T01:57:47;21.40;99.90
33739;DHT22;20063;51.730;11.110;2023-08-12T02:00:13;21.50;99.90
33739;DHT22;20063;51.730;11.110;2023-08-12T02:02:38;21.50;99.90
33739;DHT22;20063;51.730;11.110;2023-08-12T02:05:04;21.50;99.90
33739;DHT22;20063;51.730;11.110;2023-08-12T02:07:30;21.50;99.90
33739;DHT22;20063;51.730;11.110;2023-08-12T02:09:55;21.60;99.90
33739;DHT22;20063;51.730;11.110;2023-08-12T02:12:24;21.50;99.90
33739;DHT22;20063;51.730;11.110;2023-08-12T02:14:50;21.50;99.90
33739;DHT22;20063;51.730;11.110;2023-08-12T02:17:15;21.50;99.90
33739;DHT22;20063;51.730;11.110;2023-08-12T02:19:41;21.50;99.90
33739;DHT22;20063;51.730;11.110;2023-08-12T02:22:06;21.50;99.90
33739;DHT22;20063;51.730;11.110;2023-08-12T02:24:32;21.50;99.90
33739;DHT22;20063;51.730;11.110;2023-08-12T02:26:57;21.50;99.90
33739;DHT22;20063;51.730;11.110;2023-08-12T02:29:23;21.50;99.90
33739;DHT22;20063;51.730;11.110;2023-08-12T02:31:49;21.50;99.90
33739;DHT22;20063;51.730;11.110;2023-08-12T02:34:14;21.50;99.90
33739;DHT22;20063;51.730;11.110;2023-08-12T02:36:40;21.50;99.90
33739;DHT22;20063;51.730;11.110;2023-08-12T02:39:05;21.50;99.90
33739;DHT22;20063;51.730;11.110;2023-08-12T02:41:31;21.40;99.90
33739;DHT22;20063;51.730;11.110;2023-08-12T02:43:57;21.50;99.90
33739;DHT22;20063;51.730;11.110;2023-08-12T02:46:22;21.50;99.90
33739;DHT22;20063;51.730;11.110;2023-08-12T02:48:51;21.40;99.90
33739;DHT22;20063;51.730;11.110;2023-08-12T02:51:16;21.30;99.90
33739;DHT22;20063;51.730;11.110;2023-08-12T02:53:42;21.30;99.90
33739;DHT22;20063;51.730;11.110;2023-08-12T02:56:08;21.30;99.90
33739;DHT22;20063;51.730;11.110;2023-08-12T02:58:33;21.30;99.90
33739;DHT22;20063;51.730;11.110;2023-08-12T03:00:59;21.30;99.90
33739;DHT22;20063;51.730;11.110;2023-08-12T03:03:25;21.30;99.90
33739;DHT22;20063;51.730;11.110;2023-08-12T03:05:51;21.30;99.90
33739;DHT22;20063;51.730;11.110;2023-08-12T03:08:16;21.30;99.90
33739;DHT22;20063;51.730;11.110;2023-08-12T03:10:42;21.20;99.90
33739;DHT22;20063;51.730;11.110;2023-08-12T03:13:08;21.20;99.90
33739;DHT22;20063;51.730;11.110;2023-08-12T03:15:33;21.20;99.90
33739;DHT22;20063;51.730;11.110;2023-08-12T03:17:59;21.20;99.90
33739;DHT22;20063;51.730;11.110;2023-08-12T03:20:24;21.20;99.90
33739;DHT22;20063;51.730;11.110;2023-08-12T03:22:50;21.20;99.90
33739;DHT22;20063;51.730;11.110;2023-08-12T03:25:15;21.10;99.90
33739;DHT22;20063;51.730;11.110;2023-08-12T03:27:42;21.10;99.90
33739;DHT22;20063;51.730;11.110;2023-08-12T03:30:08;21.20;99.90
33739;DHT22;20063;51.730;11.110;2023-08-12T03:32:34;21.20;99.90
33739;DHT22;20063;51.730;11.110;2023-08-12T03:34:59;21.20;99.90
33739;DHT22;20063;51.730;11.110;2023-08-12T03:37:26;21.20;99.90
33739;DHT22;20063;51.730;11.110;2023-08-12T03:39:51;21.20;99.90
33739;DHT22;20063;51.730;11.110;2023-08-12T03:42:17;21.20;99.90
33739;DHT22;20063;51.730;11.110;2023-08-12T03:44:44;21.20;99.90
33739;DHT22;20063;51.730;11.110;2023-08-12T03:47:10;21.20;99.90
33739;DHT22;20063;51.730;11.110;2023-08-12T03:49:36;21.30;99.90
33739;DHT22;20063;51.730;11.110;2023-08-12T03:52:02;21.40;99.90
33739;DHT22;20063;51.730;11.110;2023-08-12T03:54:28;21.40;99.90
33739;DHT22;20063;51.730;11.110;2023-08-12T03:56:54;21.50;99.90
33739;DHT22;20063;51.730;11.110;2023-08-12T03:59:19;21.60;99.90
33739;DHT22;20063;51.730;11.110;2023-08-12T04:01:45;21.60;99.90
33739;DHT22;20063;51.730;11.110;2023-08-12T04:04:11;21.70;99.90
33739;DHT22;20063;51.730;11.110;2023-08-12T04:06:37;21.70;99.90
33739;DHT22;20063;51.730;11.110;2023-08-12T04:09:03;21.70;99.90
33739;DHT22;20063;51.730;11.110;2023-08-12T04:11:29;21.80;99.90
33739;DHT22;20063;51.730;11.110;2023-08-12T04:13:55;21.90;99.90
33739;DHT22;20063;51.730;11.110;2023-08-12T04:16:20;21.80;99.90
33739;DHT22;20063;51.730;11.110;2023-08-12T04:18:48;21.90;99.90
33739;DHT22;20063;51.730;11.110;2023-08-12T04:21:14;21.90;99.90
33739;DHT22;20063;51.730;11.110;2023-08-12T04:23:40;21.90;99.90
33739;DHT22;20063;51.730;11.110;2023-08-12T04:26:05;21.90;99.90
33739;DHT22;20063;51.730;11.110;2023-08-12T04:28:31;22.00;99.90
33739;DHT22;20063;51.730;11.110;2023-08-12T04:30:56;22.00;99.90
33739;DHT22;20063;51.730;11.110;2023-08-12T04:33:23;22.10;99.90
33739;DHT22;20063;51.730;11.110;2023-08-12T04:35:49;22.10;99.90
33739;DHT22;20063;51.730;11.110;2023-08-12T04:38:14;22.10;99.90
33739;DHT22;20063;51.730;11.110;2023-08-12T04:40:43;22.10;99.90
33739;DHT22;20063;51.730;11.110;2023-08-12T04:43:09;22.10;99.90
33739;DHT22;20063;51.730;11.110;2023-08-12T04:45:35;22.10;99.90
33739;DHT22;20063;51.730;11.110;2023-08-12T04:48:01;22.10;99.90
33739;DHT22;20063;51.730;11.110;2023-08-12T04:50:31;22.10;99.90
33739;DHT22;20063;51.730;11.110;2023-08-12T04:52:57;22.10;99.90
33739;DHT22;20063;51.730;11.110;2023-08-12T04:55:25;22.10;99.90
33739;DHT22;20063;51.730;11.110;2023-08-12T04:57:50;22.20;99.90
33739;DHT22;20063;51.730;11.110;2023-08-12T05:00:16;22.20;99.90
33739;DHT22;20063;51.730;11.110;2023-08-12T05:02:43;22.20;99.90
33739;DHT22;20063;51.730;11.110;2023-08-12T05:05:08;22.20;99.90
33739;DHT22;20063;51.730;11.110;2023-08-12T05:07:34;22.20;99.90
33739;DHT22;20063;51.730;11.110;2023-08-12T05:10:00;22.20;99.90
33739;DHT22;20063;51.730;11.110;2023-08-12T05:12:25;22.30;99.90
33739;DHT22;20063;51.730;11.110;2023-08-12T05:14:51;22.30;99.90
33739;DHT22;20063;51.730;11.110;2023-08-12T05:17:17;22.40;99.90
33739;DHT22;20063;51.730;11.110;2023-08-12T05:19:42;22.30;99.90
33739;DHT22;20063;51.730;11.110;2023-08-12T05:22:08;22.40;99.90
33739;DHT22;20063;51.730;11.110;2023-08-12T05:24:33;22.30;99.90
33739;DHT22;20063;51.730;11.110;2023-08-12T05:26:59;22.40;99.90
33739;DHT22;20063;51.730;11.110;2023-08-12T05:29:24;22.30;99.90
33739;DHT22;20063;51.730;11.110;2023-08-12T05:31:51;22.30;99.90
33739;DHT22;20063;51.730;11.110;2023-08-12T05:34:17;22.30;99.90
33739;DHT22;20063;51.730;11.110;2023-08-12T05:36:42;22.30;99.90
33739;DHT22;20063;51.730;11.110;2023-08-12T05:39:08;22.30;99.90
33739;DHT22;20063;51.730;11.110;2023-08-12T05:41:36;22.20;99.90
33739;DHT22;20063;51.730;11.110;2023-08-12T05:44:01;22.20;99.90
33739;DHT22;20063;51.730;11.110;2023-08-12T05:46:27;22.20;99.90
33739;DHT22;20063;51.730;11.110;2023-08-12T05:48:53;22.20;99.90
33739;DHT22;20063;51.730;11.110;2023-08-12T05:51:19;22.20;99.90
33739;DHT22;20063;51.730;11.110;2023-08-12T05:53:45;22.10;99.90
33739;DHT22;20063;51.730;11.110;2023-08-12T05:56:10;22.00;99.90
33739;DHT22;20063;51.730;11.110;2023-08-12T05:58:36;21.70;99.90
33739;DHT22;20063;51.730;11.110;2023-08-12T06:01:05;21.50;99.90
33739;DHT22;20063;51.730;11.110;2023-08-12T06:03:33;21.30;99.90
33739;DHT22;20063;51.730;11.110;2023-08-12T06:05:59;21.10;99.90
33739;DHT22;20063;51.730;11.110;2023-08-12T06:08:24;21.00;99.90
33739;DHT22;20063;51.730;11.110;2023-08-12T06:10:50;20.80;99.90
33739;DHT22;20063;51.730;11.110;2023-08-12T06:13:16;20.60;99.90
33739;DHT22;20063;51.730;11.110;2023-08-12T06:15:41;20.50;99.90
33739;DHT22;20063;51.730;11.110;2023-08-12T06:18:07;20.40;99.90
33739;DHT22;20063;51.730;11.110;2023-08-12T06:20:32;20.40;99.90
33739;DHT22;20063;51.730;11.110;2023-08-12T06:22:58;20.30;99.90
33739;DHT22;20063;51.730;11.110;2023-08-12T06:25:23;20.30;99.90
33739;DHT22;20063;51.730;11.110;2023-08-12T06:27:49;20.30;99.90
33739;DHT22;20063;51.730;11.110;2023-08-12T06:30:15;20.30;99.90
33739;DHT22;20063;51.730;11.110;2023-08-12T06:32:41;20.30;99.90
33739;DHT22;20063;51.730;11.110;2023-08-12T06:35:07;20.30;99.90
33739;DHT22;20063;51.730;11.110;2023-08-12T06:37:32;20.30;99.90
33739;DHT22;20063;51.730;11.110;2023-08-12T06:39:58;20.30;99.90
33739;DHT22;20063;51.730;11.110;2023-08-12T06:42:24;20.30;99.90
33739;DHT22;20063;51.730;11.110;2023-08-12T06:44:59;20.30;99.90
33739;DHT22;20063;51.730;11.110;2023-08-12T06:47:29;20.30;99.90
33739;DHT22;20063;51.730;11.110;2023-08-12T06:49:55;20.30;99.90
33739;DHT22;20063;51.730;11.110;2023-08-12T06:52:21;20.30;99.90
33739;DHT22;20063;51.730;11.110;2023-08-12T06:54:47;20.30;99.90
33739;DHT22;20063;51.730;11.110;2023-08-12T06:57:12;20.30;99.90
33739;DHT22;20063;51.730;11.110;2023-08-12T06:59:38;20.40;99.90
33739;DHT22;20063;51.730;11.110;2023-08-12T07:02:05;20.40;99.90
33739;DHT22;20063;51.730;11.110;2023-08-12T07:04:30;20.40;99.90
33739;DHT22;20063;51.730;11.110;2023-08-12T07:06:59;20.40;99.90
33739;DHT22;20063;51.730;11.110;2023-08-12T07:09:25;20.30;99.90
33739;DHT22;20063;51.730;11.110;2023-08-12T07:11:50;20.30;99.90
33739;DHT22;20063;51.730;11.110;2023-08-12T07:14:17;20.30;99.90
33739;DHT22;20063;51.730;11.110;2023-08-12T07:16:43;20.30;99.90
33739;DHT22;20063;51.730;11.110;2023-08-12T07:19:09;20.30;99.90
33739;DHT22;20063;51.730;11.110;2023-08-12T07:21:34;20.30;99.90
33739;DHT22;20063;51.730;11.110;2023-08-12T07:24:00;20.30;99.90
33739;DHT22;20063;51.730;11.110;2023-08-12T07:26:25;20.30;99.90
33739;DHT22;20063;51.730;11.110;2023-08-12T07:28:51;20.30;99.90
33739;DHT22;20063;51.730;11.110;2023-08-12T07:31:17;20.30;99.90
33739;DHT22;20063;51.730;11.110;2023-08-12T07:33:43;20.30;99.90
33739;DHT22;20063;51.730;11.110;2023-08-12T07:36:09;20.30;99.90
33739;DHT22;20063;51.730;11.110;2023-08-12T07:38:34;20.30;99.90
33739;DHT22;20063;51.730;11.110;2023-08-12T07:41:00;20.30;99.90
33739;DHT22;20063;51.730;11.110;2023-08-12T07:43:27;20.30;99.90
33739;DHT22;20063;51.730;11.110;2023-08-12T07:45:53;20.30;99.90
33739;DHT22;20063;51.730;11.110;2023-08-12T07:48:20;20.30;99.90
33739;DHT22;20063;51.730;11.110;2023-08-12T07:50:46;20.30;99.90
33739;DHT22;20063;51.730;11.110;2023-08-12T07:53:14;20.30;99.90
33739;DHT22;20063;51.730;11.110;2023-08-12T07:55:42;20.30;99.90
33739;DHT22;20063;51.730;11.110;2023-08-12T07:58:08;20.40;99.90
33739;DHT22;20063;51.730;11.110;2023-08-12T08:00:34;20.40;99.90
33739;DHT22;20063;51.730;11.110;2023-08-12T08:03:00;20.50;99.90
33739;DHT22;20063;51.730;11.110;2023-08-12T08:05:25;20.50;99.90
33739;DHT22;20063;51.730;11.110;2023-08-12T08:07:51;20.50;99.90
33739;DHT22;20063;51.730;11.110;2023-08-12T08:10:16;20.60;99.90
33739;DHT22;20063;51.730;11.110;2023-08-12T08:12:42;20.60;99.90
33739;DHT22;20063;51.730;11.110;2023-08-12T08:15:08;20.60;99.90
33739;DHT22;20063;51.730;11.110;2023-08-12T08:17:33;20.70;99.90
33739;DHT22;20063;51.730;11.110;2023-08-12T08:19:59;20.70;99.90
33739;DHT22;20063;51.730;11.110;2023-08-12T08:22:24;20.60;99.90
33739;DHT22;20063;51.730;11.110;2023-08-12T08:24:50;20.60;99.90
33739;DHT22;20063;51.730;11.110;2023-08-12T08:27:15;20.60;99.90
33739;DHT22;20063;51.730;11.110;2023-08-12T08:29:41;20.60;99.90
33739;DHT22;20063;51.730;11.110;2023-08-12T08:32:06;20.60;99.90
33739;DHT22;20063;51.730;11.110;2023-08-12T08:34:32;20.60;99.90
33739;DHT22;20063;51.730;11.110;2023-08-12T08:36:58;20.60;99.90
33739;DHT22;20063;51.730;11.110;2023-08-12T08:39:23;20.60;99.90
33739;DHT22;20063;51.730;11.110;2023-08-12T08:41:49;20.60;99.90
33739;DHT22;20063;51.730;11.110;2023-08-12T08:44:15;20.50;99.90
33739;DHT22;20063;51.730;11.110;2023-08-12T08:46:43;20.50;99.90
33739;DHT22;20063;51.730;11.110;2023-08-12T08:49:09;20.50;99.90
33739;DHT22;20063;51.730;11.110;2023-08-12T08:51:35;20.50;99.90
33739;DHT22;20063;51.730;11.110;2023-08-12T08:54:04;20.50;99.90
33739;DHT22;20063;51.730;11.110;2023-08-12T08:56:33;20.60;99.90
33739;DHT22;20063;51.730;11.110;2023-08-12T08:58:59;20.60;99.90
33739;DHT22;20063;51.730;11.110;2023-08-12T09:01:28;20.70;99.90
33739;DHT22;20063;51.730;11.110;2023-08-12T09:03:54;20.70;99.90
33739;DHT22;20063;51.730;11.110;2023-08-12T09:06:21;20.70;99.90
33739;DHT22;20063;51.730;11.110;2023-08-12T09:08:48;20.80;99.90
33739;DHT22;20063;51.730;11.110;2023-08-12T09:11:17;20.90;99.90
33739;DHT22;20063;51.730;11.110;2023-08-12T09:13:43;21.00;99.90
33739;DHT22;20063;51.730;11.110;2023-08-12T09:16:09;20.90;99.90
33739;DHT22;20063;51.730;11.110;2023-08-12T09:18:34;20.90;99.90
33739;DHT22;20063;51.730;11.110;2023-08-12T09:21:00;20.90;99.90
33739;DHT22;20063;51.730;11.110;2023-08-12T09:23:26;21.00;99.90
33739;DHT22;20063;51.730;11.110;2023-08-12T09:25:53;21.00;99.90
33739;DHT22;20063;51.730;11.110;2023-08-12T09:28:18;21.00;99.90
33739;DHT22;20063;51.730;11.110;2023-08-12T09:30:50;21.10;99.90
33739;DHT22;20063;51.730;11.110;2023-08-12T09:33:24;21.30;99.90
33739;DHT22;20063;51.730;11.110;2023-08-12T09:35:50;21.40;99.90
33739;DHT22;20063;51.730;11.110;2023-08-12T09:38:16;21.40;99.90
33739;DHT22;20063;51.730;11.110;2023-08-12T09:40:42;21.50;99.90
33739;DHT22;20063;51.730;11.110;2023-08-12T09:43:08;21.50;99.90
33739;DHT22;20063;51.730;11.110;2023-08-12T09:45:34;21.50;99.90
33739;DHT22;20063;51.730;11.110;2023-08-12T09:48:00;21.60;99.90
33739;DHT22;20063;51.730;11.110;2023-08-12T09:50:27;21.60;99.90
33739;DHT22;20063;51.730;11.110;2023-08-12T09:52:54;21.60;99.90
33739;DHT22;20063;51.730;11.110;2023-08-12T09:55:22;21.70;99.90
33739;DHT22;20063;51.730;11.110;2023-08-12T09:57:51;21.70;99.90
33739;DHT22;20063;51.730;11.110;2023-08-12T10:00:18;21.70;99.90
33739;DHT22;20063;51.730;11.110;2023-08-12T10:02:50;21.80;99.90
33739;DHT22;20063;51.730;11.110;2023-08-12T10:05:24;21.80;99.90
33739;DHT22;20063;51.730;11.110;2023-08-12T10:07:52;21.80;99.90
33739;DHT22;20063;51.730;11.110;2023-08-12T10:10:19;21.80;99.90
33739;DHT22;20063;51.730;11.110;2023-08-12T10:12:45;21.90;99.90
33739;DHT22;20063;51.730;11.110;2023-08-12T10:15:11;21.90;99.90
33739;DHT22;20063;51.730;11.110;2023-08-12T10:17:38;21.90;99.90
33739;DHT22;20063;51.730;11.110;2023-08-12T10:20:06;22.00;99.90
33739;DHT22;20063;51.730;11.110;2023-08-12T10:22:35;22.10;99.90
33739;DHT22;20063;51.730;11.110;2023-08-12T10:25:02;22.10;99.90
33739;DHT22;20063;51.730;11.110;2023-08-12T10:27:29;22.20;99.90
33739;DHT22;20063;51.730;11.110;2023-08-12T10:29:58;22.30;99.90
33739;DHT22;20063;51.730;11.110;2023-08-12T10:32:24;22.40;99.90
33739;DHT22;20063;51.730;11.110;2023-08-12T10:34:57;22.60;99.90
33739;DHT22;20063;51.730;11.110;2023-08-12T10:37:24;22.90;99.90
33739;DHT22;20063;51.730;11.110;2023-08-12T10:39:52;23.20;99.90
33739;DHT22;20063;51.730;11.110;2023-08-12T10:45:11;23.80;99.90
33739;DHT22;20063;51.730;11.110;2023-08-12T10:47:41;24.00;99.90
33739;DHT22;20063;51.730;11.110;2023-08-12T10:50:22;24.20;99.90
33739;DHT22;20063;51.730;11.110;2023-08-12T10:52:53;24.40;99.90
33739;DHT22;20063;51.730;11.110;2023-08-12T10:55:20;24.50;99.90
33739;DHT22;20063;51.730;11.110;2023-08-12T10:57:48;24.60;99.90
33739;DHT22;20063;51.730;11.110;2023-08-12T11:00:18;24.70;99.90
33739;DHT22;20063;51.730;11.110;2023-08-12T11:02:50;24.70;99.90
33739;DHT22;20063;51.730;11.110;2023-08-12T11:05:18;24.80;99.90
33739;DHT22;20063;51.730;11.110;2023-08-12T11:08:00;24.80;99.90
33739;DHT22;20063;51.730;11.110;2023-08-12T11:10:31;24.90;99.90
33739;DHT22;20063;51.730;11.110;2023-08-12T11:12:57;25.10;99.90
33739;DHT22;20063;51.730;11.110;2023-08-12T11:18:02;25.40;99.90
33739;DHT22;20063;51.730;11.110;2023-08-12T11:20:28;25.40;99.90
33739;DHT22;20063;51.730;11.110;2023-08-12T11:22:57;25.40;99.90
33739;DHT22;20063;51.730;11.110;2023-08-12T11:25:27;25.60;99.90
33739;DHT22;20063;51.730;11.110;2023-08-12T11:27:53;25.70;99.90
33739;DHT22;20063;51.730;11.110;2023-08-12T11:30:20;25.80;99.90
33739;DHT22;20063;51.730;11.110;2023-08-12T11:32:52;26.00;99.90
33739;DHT22;20063;51.730;11.110;2023-08-12T11:35:18;26.00;99.90
33739;DHT22;20063;51.730;11.110;2023-08-12T11:37:46;26.00;99.90
33739;DHT22;20063;51.730;11.110;2023-08-12T11:40:13;25.90;99.90
33739;DHT22;20063;51.730;11.110;2023-08-12T11:42:44;25.90;99.90
33739;DHT22;20063;51.730;11.110;2023-08-12T11:45:11;26.00;99.90
33739;DHT22;20063;51.730;11.110;2023-08-12T11:47:39;26.00;99.90
33739;DHT22;20063;51.730;11.110;2023-08-12T11:50:06;26.10;99.90
33739;DHT22;20063;51.730;11.110;2023-08-12T11:52:32;26.10;99.90
33739;DHT22;20063;51.730;11.110;2023-08-12T11:54:58;26.20;99.90
33739;DHT22;20063;51.730;11.110;2023-08-12T11:57:25;26.20;99.90
33739;DHT22;20063;51.730;11.110;2023-08-12T11:59:51;26.10;99.90
33739;DHT22;20063;51.730;11.110;2023-08-12T12:02:17;26.00;99.90
33739;DHT22;20063;51.730;11.110;2023-08-12T12:04:43;25.90;99.90
33739;DHT22;20063;51.730;11.110;2023-08-12T12:07:19;25.80;99.90
33739;DHT22;20063;51.730;11.110;2023-08-12T12:09:52;25.70;99.90
33739;DHT22;20063;51.730;11.110;2023-08-12T12:12:25;25.60;99.90
33739;DHT22;20063;51.730;11.110;2023-08-12T12:14:51;25.50;99.90
33739;DHT22;20063;51.730;11.110;2023-08-12T12:17:20;25.40;99.90
33739;DHT22;20063;51.730;11.110;2023-08-12T12:19:46;25.40;99.90
33739;DHT22;20063;51.730;11.110;2023-08-12T12:22:12;25.30;99.90
33739;DHT22;20063;51.730;11.110;2023-08-12T12:24:45;25.20;99.90
33739;DHT22;20063;51.730;11.110;2023-08-12T12:27:14;25.30;99.90
33739;DHT22;20063;51.730;11.110;2023-08-12T12:29:41;25.20;99.90
33739;DHT22;20063;51.730;11.110;2023-08-12T12:32:07;25.30;99.90
33739;DHT22;20063;51.730;11.110;2023-08-12T12:34:35;25.30;99.90
33739;DHT22;20063;51.730;11.110;2023-08-12T12:37:01;25.50;99.90
33739;DHT22;20063;51.730;11.110;2023-08-12T12:39:27;25.70;99.90
33739;DHT22;20063;51.730;11.110;2023-08-12T12:41:52;25.80;99.90
33739;DHT22;20063;51.730;11.110;2023-08-12T12:44:18;25.90;99.90
33739;DHT22;20063;51.730;11.110;2023-08-12T12:46:43;26.00;99.90
33739;DHT22;20063;51.730;11.110;2023-08-12T12:49:09;26.10;99.90
33739;DHT22;20063;51.730;11.110;2023-08-12T12:51:34;26.10;99.90
33739;DHT22;20063;51.730;11.110;2023-08-12T12:54:00;26.20;99.90
33739;DHT22;20063;51.730;11.110;2023-08-12T12:56:25;26.20;99.90
33739;DHT22;20063;51.730;11.110;2023-08-12T12:58:51;26.40;99.90
33739;DHT22;20063;51.730;11.110;2023-08-12T13:01:16;26.60;99.90
33739;DHT22;20063;51.730;11.110;2023-08-12T13:03:42;26.70;99.90
33739;DHT22;20063;51.730;11.110;2023-08-12T13:06:08;26.90;99.90
33739;DHT22;20063;51.730;11.110;2023-08-12T13:08:33;27.00;99.90
33739;DHT22;20063;51.730;11.110;2023-08-12T13:10:59;26.90;99.90
33739;DHT22;20063;51.730;11.110;2023-08-12T13:13:25;26.80;99.90
33739;DHT22;20063;51.730;11.110;2023-08-12T13:15:50;26.70;99.90
33739;DHT22;20063;51.730;11.110;2023-08-12T13:18:16;26.60;99.90
33739;DHT22;20063;51.730;11.110;2023-08-12T13:20:42;26.70;99.90
33739;DHT22;20063;51.730;11.110;2023-08-12T13:23:08;26.80;99.90
33739;DHT22;20063;51.730;11.110;2023-08-12T13:25:34;26.80;99.90
33739;DHT22;20063;51.730;11.110;2023-08-12T13:28:01;26.80;99.90
33739;DHT22;20063;51.730;11.110;2023-08-12T13:30:27;26.70;99.90
33739;DHT22;20063;51.730;11.110;2023-08-12T13:32:53;26.80;99.90
33739;DHT22;20063;51.730;11.110;2023-08-12T13:35:20;26.80;99.90
33739;DHT22;20063;51.730;11.110;2023-08-12T13:37:45;26.70;99.90
33739;DHT22;20063;51.730;11.110;2023-08-12T13:40:11;26.70;99.90
33739;DHT22;20063;51.730;11.110;2023-08-12T13:42:41;26.70;99.90
33739;DHT22;20063;51.730;11.110;2023-08-12T13:45:08;26.60;99.90
33739;DHT22;20063;51.730;11.110;2023-08-12T13:47:35;26.50;99.90
33739;DHT22;20063;51.730;11.110;2023-08-12T13:50:00;26.50;99.90
33739;DHT22;20063;51.730;11.110;2023-08-12T13:52:26;26.50;99.90
33739;DHT22;20063;51.730;11.110;2023-08-12T13:54:52;26.40;99.90
33739;DHT22;20063;51.730;11.110;2023-08-12T13:57:18;26.30;99.90
33739;DHT22;20063;51.730;11.110;2023-08-12T13:59:43;26.30;99.90
33739;DHT22;20063;51.730;11.110;2023-08-12T14:02:12;26.20;99.90
33739;DHT22;20063;51.730;11.110;2023-08-12T14:04:38;26.10;99.90
33739;DHT22;20063;51.730;11.110;2023-08-12T14:07:04;26.00;99.90
33739;DHT22;20063;51.730;11.110;2023-08-12T14:09:30;26.00;99.90
33739;DHT22;20063;51.730;11.110;2023-08-12T14:11:57;25.80;99.90
33739;DHT22;20063;51.730;11.110;2023-08-12T14:14:24;25.70;99.90
33739;DHT22;20063;51.730;11.110;2023-08-12T14:16:50;25.60;99.90
33739;DHT22;20063;51.730;11.110;2023-08-12T14:19:16;25.50;99.90
33739;DHT22;20063;51.730;11.110;2023-08-12T14:21:43;25.50;99.90
33739;DHT22;20063;51.730;11.110;2023-08-12T14:24:08;25.50;99.90
33739;DHT22;20063;51.730;11.110;2023-08-12T14:26:34;25.50;99.90
33739;DHT22;20063;51.730;11.110;2023-08-12T14:29:00;25.50;99.90
33739;DHT22;20063;51.730;11.110;2023-08-12T14:31:26;25.40;99.90
33739;DHT22;20063;51.730;11.110;2023-08-12T14:33:51;25.30;99.90
33739;DHT22;20063;51.730;11.110;2023-08-12T14:36:17;25.30;99.90
33739;DHT22;20063;51.730;11.110;2023-08-12T14:38:43;25.30;99.90
33739;DHT22;20063;51.730;11.110;2023-08-12T14:41:08;25.20;99.90
33739;DHT22;20063;51.730;11.110;2023-08-12T14:43:34;25.10;99.90
33739;DHT22;20063;51.730;11.110;2023-08-12T14:45:59;25.00;99.90
33739;DHT22;20063;51.730;11.110;2023-08-12T14:48:25;25.00;99.90
33739;DHT22;20063;51.730;11.110;2023-08-12T14:50:51;24.90;99.90
33739;DHT22;20063;51.730;11.110;2023-08-12T14:53:16;24.90;99.90
33739;DHT22;20063;51.730;11.110;2023-08-12T14:55:42;24.90;99.90
33739;DHT22;20063;51.730;11.110;2023-08-12T14:58:08;24.80;99.90
33739;DHT22;20063;51.730;11.110;2023-08-12T15:00:33;24.80;99.90
33739;DHT22;20063;51.730;11.110;2023-08-12T15:02:59;24.80;99.90
33739;DHT22;20063;51.730;11.110;2023-08-12T15:05:25;24.80;99.90
33739;DHT22;20063;51.730;11.110;2023-08-12T15:07:50;24.80;99.90
33739;DHT22;20063;51.730;11.110;2023-08-12T15:10:17;24.70;99.90
33739;DHT22;20063;51.730;11.110;2023-08-12T15:12:42;24.80;99.90
33739;DHT22;20063;51.730;11.110;2023-08-12T15:15:08;24.80;99.90
33739;DHT22;20063;51.730;11.110;2023-08-12T15:17:34;24.80;99.90